Time;durP1;ratioP1;P1;durP2;ratioP2;P2;SDS_P1;SDS_P2;PMS_P1;PMS_P2;Temp;Humidity;BMP_temperature;BMP_pressure;BME280_temperature;BME280_humidity;BME280_pressure;Samples;Min_cycle;Max_cycle;Signal;HPM_P1;HPM_P2
2023/05/13 00:01:09;;;;;;;;;;;10.70;68.60;;;;;;5028989;28;19924;-77
2023/05/13 00:03:34;;;;;;;;;;;10.70;68.60;;;;;;5011624;28;20031;-79
2023/05/13 00:06:00;;;;;;;;;;;10.60;68.60;;;;;;5047983;28;19928;-77
2023/05/13 00:08:25;;;;;;;;;;;10.70;68.70;;;;;;5047021;28;20079;-78
2023/05/13 00:10:51;;;;;;;;;;;10.60;68.70;;;;;;5011488;28;20724;-78
2023/05/13 00:13:16;;;;;;;;;;;10.60;68.70;;;;;;5013102;28;19921;-78
2023/05/13 00:15:42;;;;;;;;;;;10.60;68.70;;;;;;5048745;28;19920;-77
2023/05/13 00:18:07;;;;;;;;;;;10.60;68.70;;;;;;5011701;28;19943;-78
2023/05/13 00:20:33;;;;;;;;;;;10.50;68.70;;;;;;5014790;28;19920;-77
2023/05/13 00:22:58;;;;;;;;;;;10.50;68.70;;;;;;5046752;28;20510;-77
2023/05/13 00:25:23;;;;;;;;;;;10.50;68.80;;;;;;5048693;28;19921;-77
2023/05/13 00:27:49;;;;;;;;;;;10.50;68.80;;;;;;5033985;28;19925;-77
2023/05/13 00:30:14;;;;;;;;;;;10.40;68.80;;;;;;4998817;28;20562;-77
2023/05/13 00:32:40;;;;;;;;;;;10.40;68.80;;;;;;5013080;28;19928;-77
2023/05/13 00:35:05;;;;;;;;;;;10.40;68.90;;;;;;4998519;28;20519;-78
2023/05/13 00:37:31;;;;;;;;;;;10.40;68.90;;;;;;5012858;28;19982;-77
2023/05/13 00:39:56;;;;;;;;;;;10.30;68.80;;;;;;5030286;28;20004;-77
2023/05/13 00:42:22;;;;;;;;;;;10.30;68.90;;;;;;5050959;28;19921;-78
2023/05/13 00:44:47;;;;;;;;;;;10.30;68.90;;;;;;5051080;28;19927;-78
2023/05/13 00:47:13;;;;;;;;;;;10.20;68.90;;;;;;5015220;28;19964;-77
2023/05/13 00:49:38;;;;;;;;;;;10.20;68.90;;;;;;5001809;28;19960;-78
2023/05/13 00:52:04;;;;;;;;;;;10.20;68.90;;;;;;5009713;28;19925;-78
2023/05/13 00:54:29;;;;;;;;;;;10.20;69.00;;;;;;5018917;28;19952;-78
2023/05/13 00:56:55;;;;;;;;;;;10.20;69.00;;;;;;4995727;28;19929;-78
2023/05/13 00:59:22;;;;;;;;;;;10.20;69.00;;;;;;4999170;28;19959;-78
2023/05/13 01:01:51;;;;;;;;;;;10.10;69.00;;;;;;5015964;28;19994;-78
2023/05/13 01:04:31;;;;;;;;;;;10.20;69.10;;;;;;5015712;28;19931;-78
2023/05/13 01:07:16;;;;;;;;;;;10.10;69.00;;;;;;5033055;28;19927;-78
2023/05/13 01:09:55;;;;;;;;;;;10.10;69.10;;;;;;5033070;28;20555;-78
2023/05/13 01:12:42;;;;;;;;;;;10.10;69.10;;;;;;5052310;28;19932;-77
2023/05/13 01:15:08;;;;;;;;;;;10.10;69.10;;;;;;5012058;28;19920;-78
2023/05/13 01:17:36;;;;;;;;;;;10.00;69.10;;;;;;5018781;28;19932;-78
2023/05/13 01:20:02;;;;;;;;;;;10.00;69.20;;;;;;5033044;28;20323;-78
2023/05/13 01:22:28;;;;;;;;;;;10.00;69.10;;;;;;5050811;28;19921;-78
2023/05/13 01:24:53;;;;;;;;;;;10.00;69.10;;;;;;5033815;28;20043;-78
2023/05/13 01:27:19;;;;;;;;;;;10.00;69.20;;;;;;5034492;28;19940;-77
2023/05/13 01:29:44;;;;;;;;;;;9.90;69.20;;;;;;4998146;28;19971;-78
2023/05/13 01:32:10;;;;;;;;;;;9.90;69.20;;;;;;5010320;28;19986;-78
2023/05/13 01:34:35;;;;;;;;;;;9.90;69.30;;;;;;4999503;28;20433;-77
2023/05/13 01:37:02;;;;;;;;;;;9.90;69.20;;;;;;5014694;28;19921;-78
2023/05/13 01:39:27;;;;;;;;;;;9.80;69.20;;;;;;5017220;28;20055;-78
2023/05/13 01:41:53;;;;;;;;;;;9.80;69.30;;;;;;5031917;28;19960;-79
2023/05/13 01:44:18;;;;;;;;;;;9.80;69.30;;;;;;4996643;28;19925;-78
2023/05/13 01:46:44;;;;;;;;;;;9.80;69.30;;;;;;5027067;28;20451;-78
2023/05/13 01:49:09;;;;;;;;;;;9.80;69.40;;;;;;5025455;28;20026;-78
2023/05/13 01:51:39;;;;;;;;;;;9.80;69.40;;;;;;5028697;28;20395;-78
2023/05/13 01:54:04;;;;;;;;;;;9.70;69.30;;;;;;5028435;28;20666;-78
2023/05/13 01:56:30;;;;;;;;;;;9.70;69.40;;;;;;5014452;28;20399;-78
2023/05/13 01:58:55;;;;;;;;;;;9.70;69.40;;;;;;5030036;28;20648;-78
2023/05/13 02:01:20;;;;;;;;;;;9.70;69.50;;;;;;5034242;28;19927;-78
2023/05/13 02:03:46;;;;;;;;;;;9.70;69.50;;;;;;5030394;28;19925;-78
2023/05/13 02:06:11;;;;;;;;;;;9.60;69.40;;;;;;5030940;28;19929;-78
2023/05/13 02:08:37;;;;;;;;;;;9.60;69.50;;;;;;5051388;28;19946;-78
2023/05/13 02:11:02;;;;;;;;;;;9.60;70.30;;;;;;5050533;28;19976;-78
2023/05/13 02:13:28;;;;;;;;;;;9.60;69.60;;;;;;5016406;28;20264;-78
2023/05/13 02:15:53;;;;;;;;;;;9.60;69.50;;;;;;5015880;28;19925;-78
2023/05/13 02:18:19;;;;;;;;;;;9.60;69.60;;;;;;4998958;28;20454;-77
2023/05/13 02:20:44;;;;;;;;;;;9.60;69.60;;;;;;5048019;28;20383;-78
2023/05/13 02:23:10;;;;;;;;;;;9.60;69.60;;;;;;5000064;28;19931;-78
2023/05/13 02:25:36;;;;;;;;;;;9.50;69.50;;;;;;5015033;28;20623;-78
2023/05/13 02:28:01;;;;;;;;;;;9.50;69.60;;;;;;5012445;28;19921;-79
2023/05/13 02:30:26;;;;;;;;;;;9.50;69.60;;;;;;5048595;28;19931;-78
2023/05/13 02:32:52;;;;;;;;;;;9.50;69.60;;;;;;5011453;28;21161;-78
2023/05/13 02:35:18;;;;;;;;;;;9.50;69.60;;;;;;5014056;28;19921;-78
2023/05/13 02:37:43;;;;;;;;;;;9.50;69.60;;;;;;4999764;28;19931;-77
2023/05/13 02:40:09;;;;;;;;;;;9.50;69.70;;;;;;5044323;28;19925;-78
2023/05/13 02:42:34;;;;;;;;;;;9.50;69.70;;;;;;5013848;28;20571;-79
2023/05/13 02:45:00;;;;;;;;;;;9.40;69.60;;;;;;5032508;28;19956;-78
2023/05/13 02:47:25;;;;;;;;;;;9.50;69.70;;;;;;5031956;28;19998;-78
2023/05/13 02:49:51;;;;;;;;;;;9.50;69.70;;;;;;5014956;28;19927;-78
2023/05/13 02:52:17;;;;;;;;;;;9.50;69.70;;;;;;5032022;28;19925;-78
2023/05/13 02:54:42;;;;;;;;;;;9.50;69.70;;;;;;5015160;28;19948;-78
2023/05/13 02:57:08;;;;;;;;;;;9.50;69.70;;;;;;5018339;28;20791;-77
2023/05/13 02:59:33;;;;;;;;;;;9.50;69.80;;;;;;5001101;28;20528;-78
2023/05/13 03:01:59;;;;;;;;;;;9.50;69.70;;;;;;4996495;28;20020;-78
2023/05/13 03:04:24;;;;;;;;;;;9.50;69.80;;;;;;5049581;28;19986;-78
2023/05/13 03:06:50;;;;;;;;;;;9.50;69.70;;;;;;5031702;28;19920;-78
2023/05/13 03:09:15;;;;;;;;;;;9.50;69.70;;;;;;5012480;28;20067;-77
2023/05/13 03:11:40;;;;;;;;;;;9.50;70.50;;;;;;5033405;28;19929;-78
2023/05/13 03:14:06;;;;;;;;;;;9.50;69.70;;;;;;5013867;28;20043;-78
2023/05/13 03:16:31;;;;;;;;;;;9.50;69.80;;;;;;4999896;28;19921;-78
2023/05/13 03:18:57;;;;;;;;;;;9.50;69.80;;;;;;5013271;28;19921;-79
2023/05/13 03:21:22;;;;;;;;;;;9.50;69.70;;;;;;5031187;28;19924;-78
2023/05/13 03:23:48;;;;;;;;;;;9.50;69.80;;;;;;5031847;28;19960;-78
2023/05/13 03:26:13;;;;;;;;;;;9.50;69.70;;;;;;5029115;28;19917;-77
2023/05/13 03:28:39;;;;;;;;;;;9.50;69.80;;;;;;5048662;28;20299;-78
2023/05/13 03:31:06;;;;;;;;;;;9.50;69.80;;;;;;5013004;28;21822;-78
2023/05/13 03:33:32;;;;;;;;;;;9.50;69.80;;;;;;5002980;28;19924;-78
2023/05/13 03:35:57;;;;;;;;;;;9.50;69.80;;;;;;4999824;28;19928;-79
2023/05/13 03:38:23;;;;;;;;;;;9.50;69.80;;;;;;5030421;28;19921;-78
2023/05/13 03:40:48;;;;;;;;;;;9.50;69.80;;;;;;5031401;28;19952;-78
2023/05/13 03:43:13;;;;;;;;;;;9.50;69.90;;;;;;5013713;28;19928;-78
2023/05/13 03:45:39;;;;;;;;;;;9.50;69.80;;;;;;5015165;28;19932;-78
2023/05/13 03:48:05;;;;;;;;;;;9.50;69.80;;;;;;5030203;28;19921;-78
2023/05/13 03:50:30;;;;;;;;;;;9.50;69.90;;;;;;5013875;28;19964;-78
2023/05/13 03:52:56;;;;;;;;;;;9.50;69.90;;;;;;5038673;28;19921;-78
2023/05/13 03:55:21;;;;;;;;;;;9.50;69.90;;;;;;5032100;28;19947;-78
2023/05/13 03:57:47;;;;;;;;;;;9.40;69.90;;;;;;5014510;28;20027;-78
2023/05/13 04:00:13;;;;;;;;;;;9.50;69.90;;;;;;4988842;28;19952;-77
2023/05/13 04:02:38;;;;;;;;;;;9.40;69.90;;;;;;5046572;28;19986;-77
2023/05/13 04:05:05;;;;;;;;;;;9.40;69.90;;;;;;5014040;28;19928;-77
2023/05/13 04:07:30;;;;;;;;;;;9.40;69.90;;;;;;5014055;28;19921;-78
2023/05/13 04:09:55;;;;;;;;;;;9.40;69.90;;;;;;5046544;28;19982;-78
2023/05/13 04:12:21;;;;;;;;;;;9.40;69.90;;;;;;5047279;28;20764;-78
2023/05/13 04:14:46;;;;;;;;;;;9.40;69.90;;;;;;5049845;28;19967;-77
2023/05/13 04:17:12;;;;;;;;;;;9.40;70.00;;;;;;5033250;28;20438;-78
2023/05/13 04:19:37;;;;;;;;;;;9.50;70.00;;;;;;5050858;28;19927;-78
2023/05/13 04:22:03;;;;;;;;;;;9.50;70.00;;;;;;5015535;28;20026;-78
2023/05/13 04:24:28;;;;;;;;;;;9.50;69.90;;;;;;5002350;28;19924;-78
2023/05/13 04:26:54;;;;;;;;;;;9.50;69.90;;;;;;5015154;28;19929;-78
2023/05/13 04:29:19;;;;;;;;;;;9.50;70.00;;;;;;5014981;28;19921;-78
2023/05/13 04:31:45;;;;;;;;;;;9.50;69.90;;;;;;5020223;28;19929;-78
2023/05/13 04:34:10;;;;;;;;;;;9.50;69.90;;;;;;5031161;28;19978;-77
2023/05/13 04:36:36;;;;;;;;;;;9.60;70.00;;;;;;5018320;28;19921;-78
2023/05/13 04:39:01;;;;;;;;;;;9.50;69.90;;;;;;5015671;28;19967;-79
2023/05/13 04:41:26;;;;;;;;;;;9.60;70.00;;;;;;5029508;28;20358;-78
2023/05/13 04:43:52;;;;;;;;;;;9.60;70.00;;;;;;4998934;28;20660;-77
2023/05/13 04:46:17;;;;;;;;;;;9.60;70.00;;;;;;5033958;28;20337;-78
2023/05/13 04:48:47;;;;;;;;;;;9.60;70.00;;;;;;5016425;28;19917;-78
2023/05/13 04:51:15;;;;;;;;;;;9.70;70.00;;;;;;5013440;28;19929;-78
2023/05/13 04:53:40;;;;;;;;;;;9.70;70.00;;;;;;5015377;28;20003;-78
2023/05/13 04:56:06;;;;;;;;;;;9.70;70.00;;;;;;5000370;28;19995;-79
2023/05/13 04:58:31;;;;;;;;;;;9.80;70.00;;;;;;5034359;28;19948;-79
2023/05/13 05:00:56;;;;;;;;;;;9.80;70.00;;;;;;5018084;28;19928;-78
2023/05/13 05:03:22;;;;;;;;;;;9.80;70.00;;;;;;5034472;28;20323;-78
2023/05/13 05:05:48;;;;;;;;;;;9.90;70.00;;;;;;4999101;28;20004;-78
2023/05/13 05:08:13;;;;;;;;;;;9.90;70.00;;;;;;5012681;28;19936;-78
2023/05/13 05:10:39;;;;;;;;;;;10.00;70.00;;;;;;5015017;28;19956;-78
2023/05/13 05:13:04;;;;;;;;;;;10.00;70.00;;;;;;5024267;28;20298;-78
2023/05/13 05:15:30;;;;;;;;;;;10.10;70.00;;;;;;5022796;28;19947;-77
2023/05/13 05:17:55;;;;;;;;;;;10.10;69.90;;;;;;5014688;28;19920;-78
2023/05/13 05:20:23;;;;;;;;;;;10.20;70.80;;;;;;5035790;28;20280;-78
2023/05/13 05:22:49;;;;;;;;;;;10.30;70.00;;;;;;5012104;28;20682;-78
2023/05/13 05:25:14;;;;;;;;;;;10.30;69.90;;;;;;5049026;28;20514;-78
2023/05/13 05:27:40;;;;;;;;;;;10.40;69.80;;;;;;5015142;28;20007;-78
2023/05/13 05:30:05;;;;;;;;;;;10.50;69.80;;;;;;5033715;28;19921;-76
2023/05/13 05:32:31;;;;;;;;;;;10.50;69.70;;;;;;5028525;28;19924;-76
2023/05/13 05:34:57;;;;;;;;;;;10.60;69.80;;;;;;5017001;28;20454;-75
2023/05/13 05:37:22;;;;;;;;;;;10.70;69.70;;;;;;5011216;28;20395;-75
2023/05/13 05:39:48;;;;;;;;;;;10.70;69.70;;;;;;4992722;28;20299;-75
2023/05/13 05:42:13;;;;;;;;;;;10.70;69.60;;;;;;5004017;28;19925;-76
2023/05/13 05:44:38;;;;;;;;;;;10.80;69.60;;;;;;5047693;28;20407;-75
2023/05/13 05:47:04;;;;;;;;;;;10.90;69.60;;;;;;5011432;28;19928;-75
2023/05/13 05:49:29;;;;;;;;;;;10.90;69.50;;;;;;5029417;28;19920;-76
2023/05/13 05:51:55;;;;;;;;;;;11.00;69.50;;;;;;5011585;28;19929;-76
2023/05/13 05:54:20;;;;;;;;;;;11.10;69.50;;;;;;5005314;28;19921;-79
2023/05/13 05:56:46;;;;;;;;;;;11.10;69.40;;;;;;5033453;28;20002;-79
2023/05/13 05:59:11;;;;;;;;;;;11.20;69.50;;;;;;5041774;28;19925;-78
2023/05/13 06:01:37;;;;;;;;;;;11.20;69.40;;;;;;5048988;28;19932;-77
2023/05/13 06:04:02;;;;;;;;;;;11.30;69.40;;;;;;5034044;28;19929;-79
2023/05/13 06:06:28;;;;;;;;;;;11.40;69.40;;;;;;5048672;28;20019;-78
2023/05/13 06:08:53;;;;;;;;;;;11.40;69.30;;;;;;5029520;28;19924;-78
2023/05/13 06:11:19;;;;;;;;;;;11.50;69.30;;;;;;4997589;28;20023;-78
2023/05/13 06:13:45;;;;;;;;;;;11.60;69.30;;;;;;5030059;28;19921;-78
2023/05/13 06:16:10;;;;;;;;;;;11.70;69.30;;;;;;5048193;28;19921;-76
2023/05/13 06:18:36;;;;;;;;;;;11.80;69.20;;;;;;5012455;28;19923;-78
2023/05/13 06:21:01;;;;;;;;;;;11.90;69.20;;;;;;4998954;28;19921;-77
2023/05/13 06:23:26;;;;;;;;;;;12.00;69.10;;;;;;5009768;28;19925;-78
2023/05/13 06:25:52;;;;;;;;;;;12.10;69.00;;;;;;5015949;28;19964;-77
2023/05/13 06:28:17;;;;;;;;;;;12.20;69.00;;;;;;5048711;28;19943;-78
2023/05/13 06:30:43;;;;;;;;;;;12.30;68.80;;;;;;5014581;28;20027;-78
2023/05/13 06:33:09;;;;;;;;;;;12.50;68.80;;;;;;5012696;28;20832;-78
2023/05/13 06:35:35;;;;;;;;;;;12.60;68.70;;;;;;5029843;28;19959;-78
2023/05/13 06:38:01;;;;;;;;;;;12.70;68.60;;;;;;5028730;28;19921;-78
2023/05/13 06:40:26;;;;;;;;;;;12.90;68.50;;;;;;5046515;28;19952;-78
2023/05/13 06:42:52;;;;;;;;;;;13.00;68.40;;;;;;5028105;28;20155;-79
2023/05/13 06:45:21;;;;;;;;;;;13.10;68.20;;;;;;5030202;28;19920;-78
2023/05/13 06:47:48;;;;;;;;;;;13.20;68.10;;;;;;5032214;28;19986;-79
2023/05/13 06:50:14;;;;;;;;;;;13.30;68.00;;;;;;5029148;28;19925;-78
2023/05/13 06:52:39;;;;;;;;;;;13.50;68.00;;;;;;5029650;28;19947;-78
2023/05/13 06:55:05;;;;;;;;;;;13.60;67.90;;;;;;5047971;28;19928;-79
2023/05/13 06:57:30;;;;;;;;;;;13.70;67.80;;;;;;5038301;28;19921;-79
2023/05/13 06:59:56;;;;;;;;;;;13.80;67.80;;;;;;5047379;28;20302;-78
2023/05/13 07:02:21;;;;;;;;;;;14.00;67.60;;;;;;5007157;28;20018;-78
2023/05/13 07:04:47;;;;;;;;;;;14.10;67.60;;;;;;5012397;28;19924;-78
2023/05/13 07:07:13;;;;;;;;;;;14.30;67.40;;;;;;4977131;28;20023;-78
2023/05/13 07:09:38;;;;;;;;;;;14.40;67.40;;;;;;4985482;28;20739;-77
2023/05/13 07:12:04;;;;;;;;;;;14.50;67.20;;;;;;5010063;28;20020;-77
2023/05/13 07:14:29;;;;;;;;;;;14.70;67.10;;;;;;4990996;28;19932;-77
2023/05/13 07:16:54;;;;;;;;;;;14.80;67.00;;;;;;5005655;28;19925;-78
2023/05/13 07:19:20;;;;;;;;;;;14.90;66.90;;;;;;4990169;28;20345;-77
2023/05/13 07:21:45;;;;;;;;;;;15.10;66.80;;;;;;4979311;28;19947;-77
2023/05/13 07:24:11;;;;;;;;;;;15.20;66.70;;;;;;4991444;28;19921;-77
2023/05/13 07:26:37;;;;;;;;;;;15.30;66.50;;;;;;4987816;28;19928;-77
2023/05/13 07:29:03;;;;;;;;;;;15.40;66.40;;;;;;5005705;28;19921;-78
2023/05/13 07:31:29;;;;;;;;;;;15.60;66.30;;;;;;4974313;28;19941;-78
2023/05/13 07:33:54;;;;;;;;;;;15.70;66.10;;;;;;5000408;28;19926;-77
2023/05/13 07:36:21;;;;;;;;;;;15.80;66.00;;;;;;5011039;28;19983;-78
2023/05/13 07:38:46;;;;;;;;;;;16.00;65.90;;;;;;4980604;28;19921;-77
2023/05/13 07:41:12;;;;;;;;;;;16.10;65.80;;;;;;4990668;28;19925;-78
2023/05/13 07:43:39;;;;;;;;;;;16.30;65.70;;;;;;5009919;28;20015;-78
2023/05/13 07:46:05;;;;;;;;;;;16.50;65.60;;;;;;5010369;28;19971;-79
2023/05/13 07:48:30;;;;;;;;;;;16.60;65.30;;;;;;5010955;28;19929;-79
2023/05/13 07:50:56;;;;;;;;;;;16.70;65.20;;;;;;4993414;28;19925;-78
2023/05/13 07:53:22;;;;;;;;;;;16.90;65.10;;;;;;5007825;28;19921;-78
2023/05/13 07:55:47;;;;;;;;;;;17.00;65.00;;;;;;4979919;28;20518;-77
2023/05/13 07:58:13;;;;;;;;;;;17.20;64.80;;;;;;4980866;28;20447;-79
2023/05/13 08:00:38;;;;;;;;;;;17.40;64.80;;;;;;4982522;28;19969;-79
2023/05/13 08:03:04;;;;;;;;;;;17.50;64.60;;;;;;5004965;28;19974;-77
2023/05/13 08:05:29;;;;;;;;;;;17.60;64.40;;;;;;5032094;28;19921;-78
2023/05/13 08:07:54;;;;;;;;;;;17.80;64.30;;;;;;5015657;28;19925;-80
2023/05/13 08:10:20;;;;;;;;;;;17.90;64.10;;;;;;5025839;28;20610;-79
2023/05/13 08:12:50;;;;;;;;;;;18.10;64.00;;;;;;5011650;28;19928;-79
2023/05/13 08:15:15;;;;;;;;;;;18.20;63.80;;;;;;5014272;28;20016;-79
2023/05/13 08:17:41;;;;;;;;;;;18.40;63.70;;;;;;5014826;28;20354;-78
2023/05/13 08:20:06;;;;;;;;;;;18.50;63.60;;;;;;5012351;28;19956;-79
2023/05/13 08:22:32;;;;;;;;;;;18.70;63.40;;;;;;5023908;28;19932;-78
2023/05/13 08:24:59;;;;;;;;;;;18.90;64.00;;;;;;5031174;28;19917;-77
2023/05/13 08:27:25;;;;;;;;;;;19.00;63.00;;;;;;5032206;28;19974;-76
2023/05/13 08:29:50;;;;;;;;;;;19.20;62.90;;;;;;5011523;28;19928;-79
2023/05/13 08:32:16;;;;;;;;;;;19.30;62.70;;;;;;5021897;28;19991;-79
2023/05/13 08:34:42;;;;;;;;;;;19.50;62.50;;;;;;5013901;28;19924;-79
2023/05/13 08:37:07;;;;;;;;;;;19.60;62.30;;;;;;5032326;28;20008;-79
2023/05/13 08:39:33;;;;;;;;;;;19.70;62.20;;;;;;5015574;28;20414;-78
2023/05/13 08:41:58;;;;;;;;;;;19.90;62.20;;;;;;5012182;28;19990;-80
2023/05/13 08:44:27;;;;;;;;;;;20.00;62.00;;;;;;4997602;28;19921;-77
2023/05/13 08:46:57;;;;;;;;;;;20.20;61.80;;;;;;5015751;28;19971;-78
2023/05/13 08:49:22;;;;;;;;;;;20.40;61.70;;;;;;5004277;28;19928;-77
2023/05/13 08:51:51;;;;;;;;;;;20.50;61.50;;;;;;5029751;28;19929;-78
2023/05/13 08:54:16;;;;;;;;;;;20.70;61.40;;;;;;4995183;28;19944;-79
2023/05/13 08:56:42;;;;;;;;;;;20.80;61.10;;;;;;5034155;28;19921;-80
2023/05/13 08:59:07;;;;;;;;;;;20.90;60.90;;;;;;5011005;28;19921;-77
2023/05/13 09:01:33;;;;;;;;;;;21.10;60.90;;;;;;5014272;28;20004;-77
2023/05/13 09:04:00;;;;;;;;;;;21.20;60.70;;;;;;4971440;28;19925;-77
2023/05/13 09:06:27;;;;;;;;;;;21.40;60.60;;;;;;5007216;28;19925;-79
2023/05/13 09:08:53;;;;;;;;;;;21.50;60.40;;;;;;5012923;28;20123;-78
2023/05/13 09:11:19;;;;;;;;;;;21.70;60.20;;;;;;4995589;28;19929;-76
2023/05/13 09:13:45;;;;;;;;;;;21.80;60.00;;;;;;4996200;28;19976;-75
2023/05/13 09:16:11;;;;;;;;;;;21.90;59.90;;;;;;4996327;28;19921;-75
2023/05/13 09:18:37;;;;;;;;;;;22.10;59.80;;;;;;4980073;28;20144;-77
2023/05/13 09:21:25;;;;;;;;;;;22.20;59.60;;;;;;4987269;28;20681;-77
2023/05/13 09:23:54;;;;;;;;;;;22.30;59.50;;;;;;5033419;28;19921;-77
2023/05/13 09:26:27;;;;;;;;;;;22.40;59.40;;;;;;4981270;28;20027;-77
2023/05/13 09:29:11;;;;;;;;;;;22.60;59.30;;;;;;4991145;28;19924;-78
2023/05/13 09:31:36;;;;;;;;;;;22.70;59.20;;;;;;5001715;28;20731;-77
2023/05/13 09:34:02;;;;;;;;;;;22.90;59.00;;;;;;4994452;28;20466;-78
2023/05/13 09:36:27;;;;;;;;;;;23.10;58.90;;;;;;4998017;28;19921;-77
2023/05/13 09:38:53;;;;;;;;;;;23.20;58.80;;;;;;5032684;28;19959;-77
2023/05/13 09:41:19;;;;;;;;;;;23.40;58.60;;;;;;5010004;28;19927;-78
2023/05/13 09:43:44;;;;;;;;;;;23.50;58.50;;;;;;4996773;28;19921;-78
2023/05/13 09:46:10;;;;;;;;;;;23.70;58.40;;;;;;5030107;28;19956;-77
2023/05/13 09:48:36;;;;;;;;;;;23.80;58.30;;;;;;4994862;28;20003;-78
2023/05/13 09:51:02;;;;;;;;;;;23.90;58.10;;;;;;4985062;28;19933;-78
2023/05/13 09:53:27;;;;;;;;;;;24.10;58.00;;;;;;4977431;28;19944;-77
2023/05/13 09:55:54;;;;;;;;;;;24.30;57.80;;;;;;4995230;28;19928;-78
2023/05/13 09:58:19;;;;;;;;;;;24.40;57.80;;;;;;4992886;28;19953;-78
2023/05/13 10:00:45;;;;;;;;;;;24.50;57.60;;;;;;5013767;28;19920;-77
2023/05/13 10:03:10;;;;;;;;;;;24.70;57.50;;;;;;5005978;28;19924;-76
2023/05/13 10:05:37;;;;;;;;;;;24.80;57.40;;;;;;5015488;28;20325;-77
2023/05/13 10:08:03;;;;;;;;;;;24.90;57.20;;;;;;5031819;28;20011;-77
2023/05/13 10:10:29;;;;;;;;;;;25.00;57.00;;;;;;5048404;28;20462;-76
2023/05/13 10:12:54;;;;;;;;;;;25.10;57.00;;;;;;5011336;28;19978;-77
2023/05/13 10:15:20;;;;;;;;;;;25.30;57.00;;;;;;5032768;28;20774;-79
2023/05/13 10:17:45;;;;;;;;;;;25.30;56.70;;;;;;5012283;28;19921;-77
2023/05/13 10:20:11;;;;;;;;;;;25.40;56.70;;;;;;4999545;28;19948;-77
2023/05/13 10:22:36;;;;;;;;;;;25.50;56.60;;;;;;5017397;28;19971;-77
2023/05/13 10:25:02;;;;;;;;;;;25.50;56.60;;;;;;5015749;28;19927;-77
2023/05/13 10:27:29;;;;;;;;;;;25.60;56.50;;;;;;5032180;28;19921;-77
2023/05/13 10:29:55;;;;;;;;;;;25.60;56.50;;;;;;5015379;28;19943;-79
2023/05/13 10:32:24;;;;;;;;;;;25.70;56.50;;;;;;5014313;28;19931;-79
2023/05/13 10:34:51;;;;;;;;;;;25.80;56.50;;;;;;5038706;28;19921;-77
2023/05/13 10:37:22;;;;;;;;;;;25.90;56.40;;;;;;5000098;28;20008;-77
2023/05/13 10:39:58;;;;;;;;;;;25.90;56.40;;;;;;5050176;28;19921;-77
2023/05/13 10:42:23;;;;;;;;;;;25.90;56.20;;;;;;4996478;28;20319;-77
2023/05/13 10:44:54;;;;;;;;;;;25.90;56.20;;;;;;5047739;28;20383;-78
2023/05/13 10:47:20;;;;;;;;;;;25.90;56.20;;;;;;4998992;28;20509;-77
2023/05/13 10:49:49;;;;;;;;;;;25.90;56.20;;;;;;5015893;28;20402;-77
2023/05/13 10:52:14;;;;;;;;;;;26.00;56.20;;;;;;5008511;28;20508;-79
2023/05/13 10:54:40;;;;;;;;;;;26.00;56.20;;;;;;5028877;28;19928;-78
2023/05/13 10:57:06;;;;;;;;;;;26.10;56.20;;;;;;4997085;28;19925;-78
2023/05/13 10:59:33;;;;;;;;;;;26.20;56.20;;;;;;5014930;28;19920;-78
2023/05/13 11:02:02;;;;;;;;;;;26.30;56.20;;;;;;5032703;28;19967;-78
2023/05/13 11:04:28;;;;;;;;;;;26.30;55.90;;;;;;4998790;28;19924;-76
2023/05/13 11:06:53;;;;;;;;;;;26.30;55.90;;;;;;5006962;28;19971;-76
2023/05/13 11:09:21;;;;;;;;;;;26.30;55.90;;;;;;5014927;28;19921;-75
2023/05/13 11:11:47;;;;;;;;;;;26.30;55.80;;;;;;5013277;28;20314;-77
2023/05/13 11:14:16;;;;;;;;;;;26.40;55.80;;;;;;4993184;28;19925;-77
2023/05/13 11:17:03;;;;;;;;;;;26.40;55.70;;;;;;4994782;28;19928;-77
2023/05/13 11:19:33;;;;;;;;;;;26.40;55.80;;;;;;5026066;28;19929;-77
2023/05/13 11:22:04;;;;;;;;;;;26.50;55.80;;;;;;5024519;28;19927;-77
2023/05/13 11:24:29;;;;;;;;;;;26.50;55.70;;;;;;5031725;28;20539;-76
2023/05/13 11:26:55;;;;;;;;;;;26.60;55.70;;;;;;4983194;28;19932;-76
2023/05/13 11:29:27;;;;;;;;;;;26.60;55.50;;;;;;5029995;28;20606;-76
2023/05/13 11:31:55;;;;;;;;;;;26.60;55.20;;;;;;5029987;28;20669;-76
2023/05/13 11:34:20;;;;;;;;;;;26.60;55.50;;;;;;4998072;28;20007;-76
2023/05/13 11:36:49;;;;;;;;;;;26.60;55.40;;;;;;5031946;28;20367;-78
2023/05/13 11:39:16;;;;;;;;;;;26.60;55.40;;;;;;5002940;28;19963;-76
2023/05/13 11:41:42;;;;;;;;;;;26.60;55.40;;;;;;4993830;28;19987;-76
2023/05/13 11:44:08;;;;;;;;;;;26.70;55.30;;;;;;5021461;28;19920;-77
2023/05/13 11:46:33;;;;;;;;;;;26.90;55.30;;;;;;5011909;28;19927;-77
2023/05/13 11:48:59;;;;;;;;;;;27.00;55.20;;;;;;5030238;28;19974;-77
2023/05/13 11:51:24;;;;;;;;;;;27.20;55.10;;;;;;5003438;28;19973;-76
2023/05/13 11:53:52;;;;;;;;;;;27.30;55.00;;;;;;4994286;28;19925;-78
2023/05/13 11:56:17;;;;;;;;;;;27.40;54.80;;;;;;4999061;28;20366;-77
2023/05/13 11:58:43;;;;;;;;;;;27.50;54.60;;;;;;5029046;28;20418;-77
2023/05/13 12:01:15;;;;;;;;;;;27.50;54.60;;;;;;5028773;28;19925;-77
2023/05/13 12:03:40;;;;;;;;;;;27.50;54.60;;;;;;5009718;28;19925;-77
2023/05/13 12:06:06;;;;;;;;;;;27.50;54.70;;;;;;5010753;28;19927;-78
2023/05/13 12:08:31;;;;;;;;;;;27.50;54.60;;;;;;5013375;28;19921;-76
2023/05/13 12:10:59;;;;;;;;;;;27.40;54.60;;;;;;5011357;28;20388;-76
2023/05/13 12:13:28;;;;;;;;;;;27.40;54.70;;;;;;5012461;28;19921;-78
2023/05/13 12:15:54;;;;;;;;;;;27.40;54.70;;;;;;5034799;28;19963;-77
2023/05/13 12:18:20;;;;;;;;;;;27.40;54.70;;;;;;4991490;28;19921;-76
2023/05/13 12:20:45;;;;;;;;;;;27.50;55.40;;;;;;5022419;28;19928;-77
2023/05/13 12:23:11;;;;;;;;;;;27.50;54.60;;;;;;5009279;28;20076;-76
2023/05/13 12:25:38;;;;;;;;;;;27.50;54.60;;;;;;5018303;28;19925;-76
2023/05/13 12:28:06;;;;;;;;;;;27.50;54.50;;;;;;5015440;28;19971;-76
2023/05/13 12:30:33;;;;;;;;;;;27.40;54.30;;;;;;5033895;28;19944;-76
2023/05/13 12:32:58;;;;;;;;;;;27.10;54.20;;;;;;5022287;28;19923;-77
2023/05/13 12:35:23;;;;;;;;;;;26.80;54.50;;;;;;5034553;28;20332;-77
2023/05/13 12:37:59;;;;;;;;;;;26.60;54.70;;;;;;5016743;28;19928;-77
2023/05/13 12:40:25;;;;;;;;;;;26.40;55.00;;;;;;5015121;28;19999;-77
2023/05/13 12:42:50;;;;;;;;;;;26.20;55.10;;;;;;5036585;28;20020;-77
2023/05/13 12:45:16;;;;;;;;;;;26.00;55.10;;;;;;5034147;28;19921;-76
2023/05/13 12:47:51;;;;;;;;;;;25.70;55.30;;;;;;5030382;28;20692;-76
2023/05/13 12:50:16;;;;;;;;;;;25.60;55.50;;;;;;5032960;28;19921;-77
2023/05/13 12:52:42;;;;;;;;;;;25.50;55.70;;;;;;5031499;28;19978;-76
2023/05/13 12:55:07;;;;;;;;;;;25.40;55.80;;;;;;5000913;28;19920;-78
2023/05/13 12:57:33;;;;;;;;;;;25.20;55.80;;;;;;5014463;28;19972;-77
2023/05/13 12:59:58;;;;;;;;;;;25.00;55.90;;;;;;5033705;28;19921;-75
2023/05/13 13:02:24;;;;;;;;;;;24.70;56.10;;;;;;5017331;28;19929;-75
2023/05/13 13:04:49;;;;;;;;;;;24.50;56.30;;;;;;5016839;28;20408;-77
2023/05/13 13:07:15;;;;;;;;;;;24.30;56.50;;;;;;5034183;28;19932;-76
2023/05/13 13:09:40;;;;;;;;;;;24.10;57.30;;;;;;5014114;28;19928;-76
2023/05/13 13:12:06;;;;;;;;;;;23.90;56.70;;;;;;5019322;28;19933;-76
2023/05/13 13:14:31;;;;;;;;;;;23.70;56.90;;;;;;5034321;28;20367;-76
2023/05/13 13:16:57;;;;;;;;;;;23.50;57.10;;;;;;5033884;28;19921;-75
2023/05/13 13:19:22;;;;;;;;;;;23.30;57.30;;;;;;5017065;28;19970;-75
2023/05/13 13:21:48;;;;;;;;;;;23.10;57.40;;;;;;5017327;28;20355;-76
2023/05/13 13:24:13;;;;;;;;;;;22.90;57.60;;;;;;5034326;28;19925;-76
2023/05/13 13:26:39;;;;;;;;;;;22.80;57.70;;;;;;5034693;28;19928;-75
2023/05/13 13:29:04;;;;;;;;;;;22.70;57.80;;;;;;5034519;28;19920;-76
2023/05/13 13:31:30;;;;;;;;;;;22.70;57.80;;;;;;5018258;28;19924;-76
2023/05/13 13:33:57;;;;;;;;;;;22.60;57.90;;;;;;5030645;28;20431;-76
2023/05/13 13:36:23;;;;;;;;;;;22.50;57.90;;;;;;5017587;28;20056;-76
2023/05/13 13:38:48;;;;;;;;;;;22.50;57.90;;;;;;5015853;28;19925;-77
2023/05/13 13:41:14;;;;;;;;;;;22.30;57.90;;;;;;5016760;28;19976;-76
2023/05/13 13:43:39;;;;;;;;;;;22.30;58.00;;;;;;5003355;28;19921;-76
2023/05/13 13:46:05;;;;;;;;;;;22.20;58.10;;;;;;5015350;28;19955;-76
2023/05/13 13:48:30;;;;;;;;;;;22.20;58.10;;;;;;5034027;28;20677;-76
2023/05/13 13:50:57;;;;;;;;;;;22.10;58.10;;;;;;5031582;28;21781;-76
2023/05/13 13:53:22;;;;;;;;;;;22.10;58.10;;;;;;5017405;28;19921;-75
2023/05/13 13:55:48;;;;;;;;;;;22.00;58.10;;;;;;5017286;28;19960;-75
2023/05/13 13:58:14;;;;;;;;;;;21.90;58.10;;;;;;5028497;28;20379;-77
2023/05/13 14:00:40;;;;;;;;;;;21.80;58.10;;;;;;5027766;28;20298;-74
2023/05/13 14:03:05;;;;;;;;;;;21.70;58.20;;;;;;5014607;28;19935;-74
2023/05/13 14:05:30;;;;;;;;;;;21.60;58.20;;;;;;5013268;28;19931;-74
2023/05/13 14:07:56;;;;;;;;;;;21.60;58.40;;;;;;5007118;28;19978;-76
2023/05/13 14:10:21;;;;;;;;;;;21.50;58.40;;;;;;5017336;28;19925;-77
2023/05/13 14:12:47;;;;;;;;;;;21.50;58.60;;;;;;5001809;28;20021;-78
2023/05/13 14:15:12;;;;;;;;;;;21.40;58.60;;;;;;5032536;28;19925;-78